createdAt,value
2022-12-11T00:00:09.939Z,16.02
2022-12-11T00:02:37.663Z,14.75
2022-12-11T00:05:06.022Z,14.90
2022-12-11T00:07:33.882Z,18.50
2022-12-11T00:10:01.736Z,16.83
2022-12-11T00:12:30.958Z,17.40
2022-12-11T00:14:58.705Z,16.88
2022-12-11T00:17:27.754Z,17.23
2022-12-11T00:19:55.474Z,15.88
2022-12-11T00:22:23.172Z,15.50
2022-12-11T00:24:50.908Z,14.18
2022-12-11T00:27:18.575Z,15.57
2022-12-11T00:29:46.435Z,16.38
2022-12-11T00:32:14.239Z,13.25
2022-12-11T00:34:43.280Z,14.20
2022-12-11T00:37:11.149Z,13.98
2022-12-11T00:39:39.676Z,12.90
2022-12-11T00:42:08.694Z,14.25
2022-12-11T00:44:37.170Z,11.68
2022-12-11T00:47:05.000Z,13.55
2022-12-11T00:49:32.756Z,13.60
2022-12-11T00:52:01.751Z,10.85
2022-12-11T00:54:29.444Z,12.77
2022-12-11T00:56:57.307Z,13.65
2022-12-11T00:59:25.248Z,12.13
2022-12-11T01:01:52.906Z,12.25
2022-12-11T01:04:20.687Z,11.25
2022-12-11T01:06:48.347Z,12.77
2022-12-11T01:09:31.332Z,12.52
2022-12-11T01:11:59.038Z,12.82
2022-12-11T01:14:27.835Z,10.45
2022-12-11T01:16:55.537Z,12.00
2022-12-11T01:19:23.257Z,11.07
2022-12-11T01:21:50.994Z,14.73
2022-12-11T01:24:19.982Z,16.95
2022-12-11T01:26:47.739Z,20.88
2022-12-11T01:29:15.429Z,18.80
2022-12-11T01:31:43.145Z,19.38
2022-12-11T01:34:10.956Z,21.48
2022-12-11T01:36:38.698Z,19.67
2022-12-11T01:39:06.526Z,21.95
2022-12-11T01:41:35.536Z,20.48
2022-12-11T01:44:06.043Z,19.52
2022-12-11T01:46:35.682Z,20.48
2022-12-11T01:49:05.231Z,19.98
2022-12-11T01:51:36.726Z,19.38
2022-12-11T01:54:09.122Z,18.75
2022-12-11T01:56:42.049Z,20.63
2022-12-11T01:59:10.899Z,18.90
2022-12-11T02:01:43.864Z,21.48
2022-12-11T02:04:16.831Z,22.17
2022-12-11T02:06:47.630Z,20.38
2022-12-11T02:09:18.127Z,18.38
2022-12-11T02:11:55.320Z,19.65
2022-12-11T02:14:31.121Z,18.38
2022-12-11T02:17:04.868Z,20.85
2022-12-11T02:19:48.991Z,18.63
2022-12-11T02:22:28.112Z,18.13
2022-12-11T02:25:11.186Z,20.77
2022-12-11T02:27:45.763Z,18.02
2022-12-11T02:30:17.055Z,22.20
2022-12-11T02:32:48.718Z,18.67
2022-12-11T02:35:20.524Z,19.08
2022-12-11T02:37:51.527Z,19.25
2022-12-11T02:40:23.820Z,19.20
2022-12-11T02:42:53.011Z,18.88
2022-12-11T02:45:23.497Z,19.83
2022-12-11T02:47:52.211Z,23.25
2022-12-11T02:50:23.357Z,20.92
2022-12-11T02:52:55.669Z,19.83
2022-12-11T02:55:24.472Z,20.23
2022-12-11T02:57:58.936Z,21.95
2022-12-11T03:00:28.043Z,18.95
2022-12-11T03:02:55.799Z,20.70
2022-12-11T03:05:23.534Z,20.05
2022-12-11T03:07:51.353Z,19.58
2022-12-11T03:10:20.681Z,18.80
2022-12-11T03:12:53.653Z,21.90
2022-12-11T03:15:24.336Z,20.52
2022-12-11T03:18:02.493Z,21.33
2022-12-11T03:20:37.924Z,18.90
2022-12-11T03:23:14.612Z,19.42
2022-12-11T03:25:52.683Z,19.77
2022-12-11T03:28:25.397Z,19.67
2022-12-11T03:30:55.046Z,19.38
2022-12-11T03:33:29.235Z,20.33
2022-12-11T03:36:01.796Z,21.00
2022-12-11T03:38:35.277Z,22.83
2022-12-11T03:41:05.151Z,20.15
2022-12-11T03:43:34.931Z,19.45
2022-12-11T03:46:02.918Z,20.83
2022-12-11T03:48:36.908Z,19.45
2022-12-11T03:51:07.922Z,19.17
2022-12-11T03:53:37.345Z,21.65
2022-12-11T03:56:06.953Z,19.17
2022-12-11T03:58:34.694Z,21.25
2022-12-11T04:01:02.800Z,21.23
2022-12-11T04:03:31.908Z,23.33
2022-12-11T04:05:59.596Z,21.10
2022-12-11T04:08:27.344Z,22.40
2022-12-11T04:11:09.139Z,21.33
2022-12-11T04:13:36.864Z,20.33
2022-12-11T04:16:04.203Z,20.20
2022-12-11T04:18:47.420Z,20.83
2022-12-11T04:21:29.099Z,18.80
2022-12-11T04:24:10.751Z,20.02
2022-12-11T04:26:38.529Z,21.05
2022-12-11T04:29:06.227Z,20.48
2022-12-11T04:31:34.011Z,20.38
2022-12-11T04:34:03.016Z,22.38
2022-12-11T04:36:30.731Z,21.63
2022-12-11T04:38:58.668Z,21.15
2022-12-11T04:41:26.371Z,19.70
2022-12-11T04:43:54.048Z,20.48
2022-12-11T04:46:23.339Z,21.20
2022-12-11T04:48:57.117Z,23.20
2022-12-11T04:51:27.490Z,21.90
2022-12-11T04:53:55.915Z,20.00
2022-12-11T04:56:23.600Z,21.33
2022-12-11T04:58:51.314Z,19.58
2022-12-11T05:01:20.902Z,21.48
2022-12-11T05:03:49.387Z,20.10
2022-12-11T05:06:17.156Z,19.40
2022-12-11T05:08:46.464Z,20.05
2022-12-11T05:11:16.595Z,20.25
2022-12-11T05:13:45.436Z,19.38
2022-12-11T05:16:15.713Z,20.73
2022-12-11T05:18:43.711Z,22.17
2022-12-11T05:21:13.254Z,19.52
2022-12-11T05:23:41.419Z,19.95
2022-12-11T05:26:13.792Z,20.92
2022-12-11T05:28:41.638Z,19.90
2022-12-11T05:31:13.172Z,20.15
2022-12-11T05:33:41.531Z,19.02
2022-12-11T05:36:10.261Z,19.85
2022-12-11T05:38:37.915Z,22.20
2022-12-11T05:41:07.575Z,21.20
2022-12-11T05:43:37.688Z,21.83
2022-12-11T05:46:08.482Z,20.33
2022-12-11T05:48:36.982Z,20.95
2022-12-11T05:51:05.750Z,20.15
2022-12-11T05:53:33.687Z,22.17
2022-12-11T05:56:03.307Z,19.73
2022-12-11T05:58:31.439Z,21.33
2022-12-11T06:01:00.619Z,21.25
2022-12-11T06:03:28.452Z,22.85
2022-12-11T06:05:56.215Z,21.08
2022-12-11T06:08:24.200Z,21.83
2022-12-11T06:10:52.027Z,21.30
2022-12-11T06:13:19.742Z,23.52
2022-12-11T06:15:47.755Z,23.30
2022-12-11T06:18:16.935Z,20.90
2022-12-11T06:20:45.308Z,21.05
2022-12-11T06:23:13.083Z,21.13
2022-12-11T06:25:41.599Z,21.35
2022-12-11T06:28:09.396Z,20.90
2022-12-11T06:30:37.557Z,20.77
2022-12-11T06:33:07.315Z,22.13
2022-12-11T06:35:42.038Z,20.90
2022-12-11T06:38:10.383Z,19.80
2022-12-11T06:40:38.105Z,22.60
2022-12-11T06:43:05.870Z,24.67
2022-12-11T06:45:33.652Z,22.42
2022-12-11T06:48:01.387Z,21.00
2022-12-11T06:50:29.124Z,21.95
2022-12-11T06:52:58.444Z,20.73
2022-12-11T06:55:26.119Z,22.13
2022-12-11T06:57:53.891Z,22.88
2022-12-11T07:00:21.663Z,21.63
2022-12-11T07:02:51.173Z,20.95
2022-12-11T07:05:19.128Z,21.88
2022-12-11T07:07:46.998Z,23.55
2022-12-11T07:10:16.961Z,23.35
2022-12-11T07:12:44.676Z,22.30
2022-12-11T07:15:13.264Z,21.05
2022-12-11T07:17:41.387Z,22.90
2022-12-11T07:20:10.035Z,22.42
2022-12-11T07:22:43.092Z,23.40
2022-12-11T07:25:14.028Z,20.90
2022-12-11T07:27:43.433Z,22.80
2022-12-11T07:30:12.062Z,24.15
2022-12-11T07:32:40.064Z,24.42
2022-12-11T07:35:08.457Z,22.35
2022-12-11T07:37:36.503Z,21.92
2022-12-11T07:40:04.599Z,19.52
2022-12-11T07:42:32.379Z,22.50
2022-12-11T07:45:01.451Z,20.02
2022-12-11T07:47:29.123Z,20.60
2022-12-11T07:49:56.873Z,20.25
2022-12-11T07:52:24.573Z,19.02
2022-12-11T07:54:52.291Z,20.08
2022-12-11T07:57:19.975Z,19.10
2022-12-11T07:59:47.787Z,18.08
2022-12-11T08:02:16.847Z,20.73
2022-12-11T08:04:44.605Z,19.50
2022-12-11T08:07:12.589Z,21.85
2022-12-11T08:09:40.445Z,22.83
2022-12-11T08:12:08.183Z,24.42
2022-12-11T08:14:36.162Z,24.38
2022-12-11T08:17:03.879Z,23.00
2022-12-11T08:19:32.956Z,23.50
2022-12-11T08:22:00.653Z,22.08
2022-12-11T08:24:28.370Z,21.85
2022-12-11T08:26:56.126Z,21.10
2022-12-11T08:29:23.887Z,21.75
2022-12-11T08:31:51.617Z,23.73
2022-12-11T08:34:19.370Z,21.60
2022-12-11T08:36:48.504Z,23.35
2022-12-11T08:39:16.191Z,21.85
2022-12-11T08:41:43.878Z,19.92
2022-12-11T08:44:17.174Z,22.25
2022-12-11T08:46:45.264Z,29.60
2022-12-11T08:49:13.064Z,27.00
2022-12-11T08:51:40.822Z,26.58
2022-12-11T08:54:10.745Z,23.90
2022-12-11T08:56:38.574Z,24.35
2022-12-11T08:59:06.695Z,24.60
2022-12-11T09:01:34.522Z,22.08
2022-12-11T09:04:02.286Z,24.05
2022-12-11T09:06:31.481Z,26.10
2022-12-11T09:09:01.419Z,24.38
2022-12-11T09:11:32.640Z,24.40
2022-12-11T09:14:05.436Z,21.83
2022-12-11T09:16:37.565Z,21.90
2022-12-11T09:19:06.792Z,20.55
2022-12-11T09:21:34.854Z,22.40
2022-12-11T09:24:02.690Z,21.67
2022-12-11T09:26:31.962Z,20.73
2022-12-11T09:29:00.058Z,19.40
2022-12-11T09:31:29.902Z,18.70
2022-12-11T09:33:59.795Z,18.45
2022-12-11T09:36:28.567Z,18.20
2022-12-11T09:38:56.861Z,17.75
2022-12-11T09:41:35.920Z,17.38
2022-12-11T09:44:13.905Z,17.75
2022-12-11T09:46:42.606Z,16.98
2022-12-11T09:49:21.712Z,16.98
2022-12-11T09:52:02.959Z,18.80
2022-12-11T09:54:31.046Z,19.10
2022-12-11T09:57:06.015Z,17.25
2022-12-11T09:59:42.219Z,16.38
2022-12-11T10:02:27.298Z,18.80
2022-12-11T10:05:08.929Z,17.50
2022-12-11T10:07:42.758Z,15.75
2022-12-11T10:10:18.377Z,18.85
2022-12-11T10:12:55.909Z,17.13
2022-12-11T10:15:32.653Z,17.48
2022-12-11T10:18:04.966Z,16.52
2022-12-11T10:20:38.970Z,15.15
2022-12-11T10:23:08.826Z,15.50
2022-12-11T10:25:38.355Z,17.55
2022-12-11T10:28:14.022Z,17.73
2022-12-11T10:30:48.719Z,17.17
2022-12-11T10:33:22.562Z,14.60
2022-12-11T10:35:52.931Z,14.75
2022-12-11T10:38:28.014Z,14.18
2022-12-11T10:40:58.504Z,15.93
2022-12-11T10:43:36.939Z,12.77
2022-12-11T10:46:06.640Z,15.27
2022-12-11T10:48:34.727Z,16.35
2022-12-11T10:51:06.213Z,16.58
2022-12-11T10:53:35.714Z,18.17
2022-12-11T10:56:03.942Z,17.02
2022-12-11T10:58:34.012Z,16.10
2022-12-11T11:01:08.358Z,17.15
2022-12-11T11:03:42.211Z,15.10
2022-12-11T11:06:18.414Z,16.58
2022-12-11T11:08:48.355Z,16.02
2022-12-11T11:11:26.039Z,13.98
2022-12-11T11:14:05.874Z,15.55
2022-12-11T11:16:38.047Z,15.57
2022-12-11T11:19:06.626Z,15.57
2022-12-11T11:21:36.586Z,15.15
2022-12-11T11:24:04.906Z,13.95
2022-12-11T11:27:11.142Z,15.23
2022-12-11T11:29:29.192Z,15.60
2022-12-11T11:31:59.779Z,14.55
2022-12-11T11:34:30.724Z,14.35
2022-12-11T11:37:05.464Z,17.92
2022-12-11T11:39:38.224Z,15.18
2022-12-11T11:42:12.907Z,15.15
2022-12-11T11:44:47.922Z,16.02
2022-12-11T11:47:23.258Z,13.30
2022-12-11T11:50:00.951Z,15.50
2022-12-11T11:52:33.126Z,14.82
2022-12-11T11:55:10.296Z,15.10
2022-12-11T11:57:43.296Z,15.13
2022-12-11T12:00:20.592Z,13.85
2022-12-11T12:02:54.231Z,14.80
2022-12-11T12:05:27.534Z,15.20
2022-12-11T12:08:06.578Z,15.90
2022-12-11T12:10:45.022Z,15.15
2022-12-11T12:13:48.557Z,15.82
2022-12-11T12:16:51.553Z,16.98
2022-12-11T12:19:20.594Z,16.30
2022-12-11T12:21:51.843Z,16.15
2022-12-11T12:24:30.942Z,16.92
2022-12-11T12:27:03.046Z,13.73
2022-12-11T12:29:44.850Z,14.77
2022-12-11T12:32:22.398Z,16.05
2022-12-11T12:35:04.103Z,15.68
2022-12-11T12:37:46.981Z,15.90
2022-12-11T12:40:24.655Z,15.98
2022-12-11T12:43:01.105Z,14.55
2022-12-11T12:45:35.912Z,15.32
2022-12-11T12:48:03.618Z,14.90
2022-12-11T12:50:38.518Z,15.55
2022-12-11T12:53:07.628Z,15.30
2022-12-11T12:55:36.647Z,16.90
2022-12-11T12:58:06.700Z,15.35
2022-12-11T13:00:36.671Z,17.80
2022-12-11T13:03:14.973Z,16.08
2022-12-11T13:05:46.654Z,16.75
2022-12-11T13:08:25.055Z,16.73
2022-12-11T13:11:01.910Z,17.48
2022-12-11T13:13:36.956Z,21.35
2022-12-11T13:16:28.653Z,30.40
2022-12-11T13:18:56.674Z,27.52
2022-12-11T13:21:31.705Z,27.38
2022-12-11T13:24:16.243Z,18.48
2022-12-11T13:26:44.282Z,17.60
2022-12-11T13:29:31.529Z,17.45
2022-12-11T13:32:00.996Z,17.08
2022-12-11T13:34:33.151Z,16.13
2022-12-11T13:37:03.796Z,17.23
2022-12-11T13:39:33.864Z,16.70
2022-12-11T13:42:05.798Z,16.83
2022-12-11T13:44:38.842Z,14.93
2022-12-11T13:47:13.423Z,16.33
2022-12-11T13:49:45.305Z,16.90
2022-12-11T13:52:19.493Z,15.35
2022-12-11T13:54:50.310Z,16.60
2022-12-11T13:57:20.892Z,17.25
2022-12-11T13:59:52.949Z,17.63
2022-12-11T14:02:24.748Z,18.75
2022-12-11T14:04:56.659Z,16.67
2022-12-11T14:07:30.366Z,18.80
2022-12-11T14:10:07.073Z,18.80
2022-12-11T14:12:36.586Z,17.98
2022-12-11T14:15:05.614Z,17.15
2022-12-11T14:17:35.398Z,16.35
2022-12-11T14:20:07.587Z,19.40
2022-12-11T14:22:36.932Z,18.08
2022-12-11T14:25:21.637Z,18.73
2022-12-11T14:27:52.158Z,18.65
2022-12-11T14:30:24.826Z,18.45
2022-12-11T14:32:55.570Z,17.65
2022-12-11T14:35:27.258Z,20.23
2022-12-11T14:37:58.154Z,17.77
2022-12-11T14:40:30.828Z,18.13
2022-12-11T14:43:02.113Z,16.15
2022-12-11T14:45:35.130Z,18.90
2022-12-11T14:48:11.006Z,18.15
2022-12-11T14:50:43.475Z,18.70
2022-12-11T14:53:19.210Z,17.63
2022-12-11T14:55:49.262Z,18.00
2022-12-11T14:58:21.852Z,19.67
2022-12-11T15:00:58.525Z,21.88
2022-12-11T15:03:33.408Z,18.95
2022-12-11T15:06:02.508Z,18.05
2022-12-11T15:08:33.337Z,21.13
2022-12-11T15:11:05.583Z,19.88
2022-12-11T15:13:34.370Z,19.60
2022-12-11T15:16:03.212Z,18.52
2022-12-11T15:18:34.588Z,17.98
2022-12-11T15:21:06.883Z,18.83
2022-12-11T15:23:47.989Z,17.48
2022-12-11T15:26:15.888Z,20.13
2022-12-11T15:28:43.644Z,20.08
2022-12-11T15:31:26.254Z,17.65
2022-12-11T15:33:54.778Z,17.92
2022-12-11T15:36:27.136Z,17.83
2022-12-11T15:38:56.148Z,18.60
2022-12-11T15:41:24.849Z,19.67
2022-12-11T15:43:58.629Z,19.25
2022-12-11T15:46:27.793Z,19.02
2022-12-11T15:48:56.900Z,19.33
2022-12-11T15:51:27.827Z,17.55
2022-12-11T15:53:56.893Z,19.63
2022-12-11T15:56:24.604Z,19.02
2022-12-11T15:58:52.401Z,20.17
2022-12-11T16:01:20.778Z,19.05
2022-12-11T16:03:50.218Z,21.25
2022-12-11T16:06:17.975Z,19.60
2022-12-11T16:08:46.547Z,19.95
2022-12-11T16:11:15.689Z,19.08
2022-12-11T16:13:43.412Z,18.23
2022-12-11T16:16:11.301Z,19.65
2022-12-11T16:18:39.467Z,20.25
2022-12-11T16:21:08.182Z,17.67
2022-12-11T16:23:35.824Z,18.80
2022-12-11T16:26:09.867Z,23.10
2022-12-11T16:28:39.706Z,19.95
2022-12-11T16:31:11.749Z,19.05
2022-12-11T16:33:39.618Z,20.38
2022-12-11T16:36:13.914Z,21.67
2022-12-11T16:38:41.652Z,26.17
2022-12-11T16:41:09.306Z,22.10
2022-12-11T16:43:37.022Z,22.30
2022-12-11T16:46:06.327Z,20.42
2022-12-11T16:48:34.402Z,20.27
2022-12-11T16:51:02.144Z,19.67
2022-12-11T16:53:29.842Z,19.05
2022-12-11T16:55:57.507Z,18.63
2022-12-11T16:58:25.171Z,19.40
2022-12-11T17:00:52.898Z,20.83
2022-12-11T17:03:21.874Z,19.88
2022-12-11T17:05:49.542Z,20.48
2022-12-11T17:08:17.310Z,20.23
2022-12-11T17:10:45.006Z,21.33
2022-12-11T17:13:12.757Z,21.35
2022-12-11T17:15:42.053Z,23.00
2022-12-11T17:18:10.028Z,20.48
2022-12-11T17:20:42.542Z,22.13
2022-12-11T17:23:10.825Z,21.65
2022-12-11T17:25:40.924Z,21.50
2022-12-11T17:28:09.087Z,22.30
2022-12-11T17:30:40.957Z,21.05
2022-12-11T17:33:08.677Z,22.27
2022-12-11T17:35:36.411Z,22.65
2022-12-11T17:38:05.662Z,25.08
2022-12-11T17:40:33.601Z,20.00
2022-12-11T17:43:01.326Z,19.50
2022-12-11T17:45:29.022Z,21.15
2022-12-11T17:47:56.680Z,21.80
2022-12-11T17:50:24.446Z,19.33
2022-12-11T17:52:52.400Z,21.67
2022-12-11T17:55:21.465Z,20.50
2022-12-11T17:57:49.202Z,22.42
2022-12-11T18:00:17.187Z,21.08
2022-12-11T18:02:44.946Z,22.42
2022-12-11T18:05:13.646Z,21.60
2022-12-11T18:07:41.606Z,22.60
2022-12-11T18:10:09.725Z,21.75
2022-12-11T18:12:38.751Z,20.25
2022-12-11T18:15:07.084Z,21.52
2022-12-11T18:17:35.310Z,21.00
2022-12-11T18:20:03.234Z,20.90
2022-12-11T18:22:31.656Z,20.13
2022-12-11T18:24:59.330Z,18.02
2022-12-11T18:27:27.607Z,19.73
2022-12-11T18:29:56.926Z,19.65
2022-12-11T18:32:24.698Z,20.17
2022-12-11T18:34:52.391Z,21.08
2022-12-11T18:37:24.712Z,20.30
2022-12-11T18:39:55.369Z,20.50
2022-12-11T18:42:38.462Z,20.67
2022-12-11T18:45:08.233Z,20.02
2022-12-11T18:47:37.215Z,20.30
2022-12-11T18:50:08.031Z,19.77
2022-12-11T18:52:36.290Z,20.08
2022-12-11T18:55:05.414Z,20.35
2022-12-11T18:57:33.219Z,20.30
2022-12-11T19:00:07.018Z,19.35
2022-12-11T19:02:36.803Z,18.85
2022-12-11T19:05:05.240Z,20.23
2022-12-11T19:07:32.969Z,20.52
2022-12-11T19:10:00.818Z,20.58
2022-12-11T19:12:28.718Z,20.73
2022-12-11T19:14:56.434Z,18.75
2022-12-11T19:17:24.091Z,20.00
2022-12-11T19:19:53.175Z,21.88
2022-12-11T19:22:20.907Z,21.98
2022-12-11T19:24:48.658Z,23.05
2022-12-11T19:27:16.412Z,25.73
2022-12-11T19:29:44.151Z,26.55
2022-12-11T19:32:12.047Z,23.15
2022-12-11T19:34:39.906Z,23.33
2022-12-11T19:37:09.218Z,22.60
2022-12-11T19:39:39.487Z,21.67
2022-12-11T19:42:07.371Z,21.40
2022-12-11T19:44:35.517Z,22.25
2022-12-11T19:47:03.310Z,22.30
2022-12-11T19:49:31.325Z,20.77
2022-12-11T19:51:58.990Z,21.67
2022-12-11T19:54:28.271Z,22.38
2022-12-11T19:56:56.035Z,21.10
2022-12-11T19:59:23.691Z,21.48
2022-12-11T20:01:51.516Z,21.98
2022-12-11T20:04:19.863Z,21.85
2022-12-11T20:06:48.188Z,19.35
2022-12-11T20:09:16.359Z,19.15
2022-12-11T20:11:47.203Z,19.58
2022-12-11T20:14:20.858Z,23.02
2022-12-11T20:19:36.943Z,22.45
2022-12-11T20:22:04.836Z,20.55
2022-12-11T20:24:32.889Z,20.42
2022-12-11T20:27:04.371Z,19.85
2022-12-11T20:29:32.375Z,20.92
2022-12-11T20:32:00.395Z,21.63
2022-12-11T20:34:28.470Z,20.80
2022-12-11T20:36:56.260Z,21.98
2022-12-11T20:39:24.334Z,22.60
2022-12-11T20:41:52.093Z,20.95
2022-12-11T20:44:21.411Z,20.48
2022-12-11T20:46:49.246Z,19.85
2022-12-11T20:49:17.114Z,20.63
2022-12-11T20:51:44.866Z,22.27
2022-12-11T20:54:13.132Z,21.52
2022-12-11T20:56:40.918Z,21.60
2022-12-11T20:59:08.656Z,23.15
2022-12-11T21:01:37.786Z,22.15
2022-12-11T21:04:05.607Z,22.75
2022-12-11T21:06:35.423Z,21.77
2022-12-11T21:09:08.982Z,22.23
2022-12-11T21:11:37.021Z,21.35
2022-12-11T21:14:05.013Z,21.33
2022-12-11T21:16:33.289Z,20.52
2022-12-11T21:19:02.646Z,21.52
2022-12-11T21:21:32.371Z,21.45
2022-12-11T21:24:00.311Z,20.95
2022-12-11T21:26:28.014Z,18.83
2022-12-11T21:28:55.847Z,15.27
2022-12-11T21:31:23.578Z,12.93
2022-12-11T21:33:51.785Z,11.93
2022-12-11T21:36:20.763Z,11.13
2022-12-11T21:38:48.472Z,11.27
2022-12-11T21:41:18.537Z,10.48
2022-12-11T21:44:47.057Z,10.68
2022-12-11T21:46:35.564Z,10.43
2022-12-11T21:49:03.385Z,9.90
2022-12-11T21:51:37.201Z,10.05
2022-12-11T21:54:10.141Z,10.95
2022-12-11T21:56:38.003Z,9.45
2022-12-11T21:59:06.533Z,9.85
2022-12-11T22:01:38.130Z,7.60
2022-12-11T22:04:06.787Z,6.35
2022-12-11T22:06:36.255Z,6.35
2022-12-11T22:09:04.989Z,7.80
2022-12-11T22:11:35.297Z,8.38
2022-12-11T22:14:03.851Z,7.38
2022-12-11T22:16:31.732Z,6.68
2022-12-11T22:18:59.485Z,7.15
2022-12-11T22:21:27.270Z,7.10
2022-12-11T22:23:56.725Z,7.00
2022-12-11T22:26:26.452Z,5.15
2022-12-11T22:28:54.882Z,5.57
2022-12-11T22:31:25.178Z,7.00
2022-12-11T22:33:54.747Z,5.68
2022-12-11T22:36:23.633Z,3.83
2022-12-11T22:38:51.486Z,4.18
2022-12-11T22:41:24.671Z,3.85
2022-12-11T22:43:52.506Z,4.32
2022-12-11T22:46:23.240Z,3.78
2022-12-11T22:48:51.545Z,3.85
2022-12-11T22:51:19.814Z,4.30
2022-12-11T22:53:47.942Z,4.47
2022-12-11T22:56:16.056Z,3.10
2022-12-11T22:58:45.144Z,3.80
2022-12-11T23:01:14.922Z,3.85
2022-12-11T23:03:42.704Z,3.80
2022-12-11T23:06:12.739Z,5.53
2022-12-11T23:08:41.831Z,4.47
2022-12-11T23:11:12.639Z,5.15
2022-12-11T23:13:40.462Z,5.50
2022-12-11T23:16:10.652Z,6.13
2022-12-11T23:18:39.350Z,6.30
2022-12-11T23:21:07.179Z,5.90
2022-12-11T23:23:34.889Z,5.75
2022-12-11T23:26:03.146Z,5.15
2022-12-11T23:28:30.856Z,5.80
2022-12-11T23:30:58.802Z,4.80
2022-12-11T23:33:28.208Z,4.72
2022-12-11T23:35:56.038Z,3.67
2022-12-11T23:38:23.768Z,4.45
2022-12-11T23:40:52.934Z,3.53
2022-12-11T23:43:20.748Z,3.60
2022-12-11T23:45:48.866Z,3.30
2022-12-11T23:48:16.654Z,3.97
2022-12-11T23:50:46.146Z,4.78
2022-12-11T23:53:14.139Z,4.30
2022-12-11T23:55:44.326Z,3.50
2022-12-11T23:58:12.564Z,2.50
